createdAt,value
2019-05-11T00:01:50.072Z,9.82
2019-05-11T00:06:51.603Z,9.87
2019-05-11T00:11:53.174Z,9.91
2019-05-11T00:16:54.758Z,9.98
2019-05-11T00:21:56.245Z,10.05
2019-05-11T00:26:57.770Z,10.06
2019-05-11T00:31:59.405Z,10.05
2019-05-11T00:37:00.866Z,10.04
2019-05-11T00:42:02.692Z,10.03
2019-05-11T00:47:04.517Z,10.04
2019-05-11T00:52:05.979Z,10.05
2019-05-11T00:57:07.616Z,10.06
2019-05-11T01:02:09.111Z,10.02
2019-05-11T01:07:10.577Z,9.99
2019-05-11T01:12:12.195Z,9.93
2019-05-11T01:17:13.787Z,9.87
2019-05-11T01:22:15.267Z,9.82
2019-05-11T01:27:16.754Z,9.81
2019-05-11T01:32:18.248Z,9.85
2019-05-11T01:37:19.776Z,9.88
2019-05-11T01:42:21.359Z,9.93
2019-05-11T01:47:22.990Z,9.97
2019-05-11T01:52:24.466Z,10.03
2019-05-11T01:57:26.093Z,10.07
2019-05-11T02:02:27.773Z,10.13
2019-05-11T02:07:29.245Z,10.16
2019-05-11T02:12:30.719Z,10.19
2019-05-11T02:17:32.258Z,10.21
2019-05-11T02:22:33.850Z,10.22
2019-05-11T02:27:35.344Z,10.21
2019-05-11T02:32:36.924Z,10.23
2019-05-11T02:37:38.503Z,10.21
2019-05-11T02:42:40.292Z,10.20
2019-05-11T02:47:42.115Z,10.18
2019-05-11T02:52:44.026Z,10.21
2019-05-11T02:57:45.542Z,10.17
2019-05-11T03:02:47.027Z,10.17
2019-05-11T03:07:48.529Z,10.17
2019-05-11T03:12:49.999Z,10.18
2019-05-11T03:17:51.528Z,10.16
2019-05-11T03:22:53.007Z,10.13
2019-05-11T03:27:54.591Z,10.01
2019-05-11T03:32:56.187Z,9.86
2019-05-11T03:37:57.735Z,9.73
2019-05-11T03:42:59.319Z,9.69
2019-05-11T03:48:00.848Z,9.63
2019-05-11T03:53:03.614Z,9.60
2019-05-11T03:58:05.251Z,9.60
2019-05-11T04:03:07.828Z,9.69
2019-05-11T04:08:09.501Z,9.78
2019-05-11T04:13:11.461Z,9.90
2019-05-11T04:18:13.004Z,10.05
2019-05-11T04:23:14.526Z,10.25
2019-05-11T04:28:17.100Z,10.36
2019-05-11T04:33:18.667Z,10.35
2019-05-11T04:38:20.215Z,10.36
2019-05-11T04:43:21.910Z,10.32
2019-05-11T04:48:23.909Z,10.29
2019-05-11T04:53:25.658Z,10.31
2019-05-11T04:58:27.170Z,10.35
2019-05-11T05:03:40.409Z,10.39
2019-05-11T05:08:32.179Z,10.52
2019-05-11T05:13:33.658Z,10.54
2019-05-11T05:18:35.176Z,10.50
2019-05-11T05:23:36.693Z,10.69
2019-05-11T05:28:38.287Z,10.98
2019-05-11T05:33:39.855Z,11.27
2019-05-11T05:38:41.347Z,11.59
2019-05-11T05:43:42.823Z,11.89
2019-05-11T05:48:44.294Z,12.18
2019-05-11T05:53:45.804Z,12.49
2019-05-11T05:58:47.328Z,12.81
2019-05-11T06:03:48.806Z,13.18
2019-05-11T06:08:50.282Z,13.38
2019-05-11T06:13:51.770Z,13.50
2019-05-11T06:18:53.234Z,13.75
2019-05-11T06:23:54.780Z,14.03
2019-05-11T06:28:56.250Z,14.23
2019-05-11T06:33:57.739Z,14.51
2019-05-11T06:38:59.205Z,14.68
2019-05-11T06:44:02.314Z,14.84
2019-05-11T06:49:04.290Z,15.04
2019-05-11T06:54:05.824Z,15.21
2019-05-11T06:59:07.446Z,15.39
2019-05-11T07:04:08.989Z,15.48
2019-05-11T07:09:10.497Z,15.71
2019-05-11T07:14:20.686Z,15.91
2019-05-11T07:19:15.391Z,16.16
2019-05-11T07:24:16.914Z,16.31
2019-05-11T07:29:18.438Z,16.46
2019-05-11T07:34:19.923Z,16.60
2019-05-11T07:39:21.446Z,16.65
2019-05-11T07:44:34.957Z,16.73
2019-05-11T07:49:26.314Z,16.81
2019-05-11T07:54:28.228Z,16.96
2019-05-11T07:59:29.974Z,16.73
2019-05-11T08:04:31.452Z,16.71
2019-05-11T08:09:32.931Z,17.04
2019-05-11T08:14:34.722Z,17.28
2019-05-11T08:19:38.399Z,17.32
2019-05-11T08:24:39.968Z,17.58
2019-05-11T08:29:41.487Z,17.62
2019-05-11T08:34:42.966Z,17.81
2019-05-11T08:39:44.550Z,17.70
2019-05-11T08:44:48.330Z,17.93
2019-05-11T08:49:49.814Z,18.10
2019-05-11T08:54:51.294Z,17.93
2019-05-11T08:59:52.868Z,18.05
2019-05-11T09:04:54.343Z,18.32
2019-05-11T09:09:58.556Z,18.15
2019-05-11T09:15:00.705Z,18.53
2019-05-11T09:20:04.687Z,18.57
2019-05-11T09:25:08.801Z,18.72
2019-05-11T09:30:11.657Z,18.38
2019-05-11T09:35:13.535Z,18.74
2019-05-11T09:40:18.068Z,19.04
2019-05-11T09:45:19.401Z,19.12
2019-05-11T09:50:20.906Z,19.30
2019-05-11T09:55:22.477Z,19.49
2019-05-11T10:00:24.757Z,19.55
2019-05-11T10:05:28.457Z,19.63
2019-05-11T10:10:30.047Z,19.50
2019-05-11T10:15:31.626Z,19.49
2019-05-11T10:20:33.203Z,19.77
2019-05-11T10:25:34.678Z,19.89
2019-05-11T10:30:38.595Z,19.97
2019-05-11T10:35:39.973Z,20.02
2019-05-11T10:40:41.647Z,20.32
2019-05-11T10:45:43.218Z,20.33
2019-05-11T10:50:44.702Z,20.03
2019-05-11T10:55:47.944Z,19.95
2019-05-11T11:00:49.692Z,20.35
2019-05-11T11:05:51.225Z,20.26
2019-05-11T11:10:52.687Z,20.38
2019-05-11T11:15:57.640Z,20.55
2019-05-11T11:20:58.751Z,20.73
2019-05-11T11:26:00.431Z,20.73
2019-05-11T11:31:02.181Z,20.94
2019-05-11T11:36:03.841Z,21.05
2019-05-11T11:41:07.471Z,21.18
2019-05-11T11:46:09.020Z,21.41
2019-05-11T11:51:10.498Z,21.59
2019-05-11T11:56:11.986Z,21.68
2019-05-11T12:01:13.491Z,21.70
2019-05-11T12:06:15.022Z,21.51
2019-05-11T12:11:18.767Z,21.69
2019-05-11T12:16:20.515Z,21.83
2019-05-11T12:21:21.984Z,21.86
2019-05-11T12:26:23.566Z,22.02
2019-05-11T12:31:25.047Z,22.00
2019-05-11T12:36:28.062Z,21.92
2019-05-11T12:41:29.763Z,22.00
2019-05-11T12:46:31.235Z,22.14
2019-05-11T12:51:32.719Z,22.06
2019-05-11T12:56:34.189Z,22.42
2019-05-11T13:01:37.919Z,22.61
2019-05-11T13:06:39.243Z,22.57
2019-05-11T13:11:40.777Z,21.75
2019-05-11T13:16:42.261Z,20.94
2019-05-11T13:21:43.735Z,20.69
2019-05-11T13:26:45.212Z,20.49
2019-05-11T13:31:48.620Z,20.56
2019-05-11T13:36:50.128Z,20.48
2019-05-11T13:41:51.603Z,20.38
2019-05-11T13:46:53.089Z,20.30
2019-05-11T13:51:54.559Z,20.58
2019-05-11T13:56:57.660Z,20.53
2019-05-11T14:01:59.495Z,20.44
2019-05-11T14:07:01.410Z,20.26
2019-05-11T14:12:04.300Z,20.10
2019-05-11T14:17:08.126Z,20.02
2019-05-11T14:22:09.353Z,19.94
2019-05-11T14:27:10.941Z,19.93
2019-05-11T14:32:12.404Z,19.96
2019-05-11T14:37:14.028Z,20.19
2019-05-11T14:42:15.577Z,20.29
2019-05-11T14:47:17.975Z,20.25
2019-05-11T14:52:19.646Z,20.30
2019-05-11T14:57:21.227Z,20.30
2019-05-11T15:02:41.011Z,20.29
2019-05-11T15:07:43.897Z,20.31
2019-05-11T15:12:45.424Z,20.15
2019-05-11T15:17:49.313Z,19.96
2019-05-11T15:22:50.311Z,19.86
2019-05-11T15:27:51.776Z,19.83
2019-05-11T15:32:53.252Z,19.79
2019-05-11T15:37:54.735Z,19.73
2019-05-11T15:42:58.346Z,19.80
2019-05-11T15:47:59.668Z,19.61
2019-05-11T15:53:01.123Z,19.68
2019-05-11T15:58:02.906Z,19.70
2019-05-11T16:03:04.679Z,19.67
2019-05-11T16:08:08.385Z,19.56
2019-05-11T16:13:10.088Z,19.35
2019-05-11T16:18:11.603Z,19.22
2019-05-11T16:23:13.483Z,19.16
2019-05-11T16:28:19.351Z,19.05
2019-05-11T16:33:20.583Z,18.90
2019-05-11T16:38:22.052Z,18.75
2019-05-11T16:43:23.520Z,18.59
2019-05-11T16:48:25.053Z,18.49
2019-05-11T16:53:28.506Z,18.36
2019-05-11T16:58:29.908Z,18.22
2019-05-11T17:03:31.515Z,18.09
2019-05-11T17:08:33.005Z,17.95
2019-05-11T17:13:53.286Z,17.87
2019-05-11T17:18:54.831Z,17.77
2019-05-11T17:23:57.972Z,17.63
2019-05-11T17:28:59.614Z,17.58
2019-05-11T17:34:01.096Z,17.53
2019-05-11T17:39:06.597Z,17.40
2019-05-11T17:44:08.296Z,17.29
2019-05-11T17:49:10.008Z,17.21
2019-05-11T17:54:11.592Z,17.10
2019-05-11T17:59:13.174Z,17.00
2019-05-11T18:04:14.686Z,16.90
2019-05-11T18:09:18.171Z,16.73
2019-05-11T18:14:19.559Z,16.58
2019-05-11T18:19:21.207Z,16.47
2019-05-11T18:24:22.688Z,16.38
2019-05-11T18:29:24.164Z,16.26
2019-05-11T18:34:25.651Z,16.16
2019-05-11T18:39:28.656Z,16.05
2019-05-11T18:44:30.334Z,15.94
2019-05-11T18:49:31.876Z,15.89
2019-05-11T18:54:33.459Z,15.86
2019-05-11T18:59:37.356Z,15.79
2019-05-11T19:04:38.730Z,15.74
2019-05-11T19:09:40.227Z,15.68
2019-05-11T19:14:41.750Z,15.64
2019-05-11T19:19:43.394Z,15.59
2019-05-11T19:24:44.915Z,15.56
2019-05-11T19:29:48.341Z,15.52
2019-05-11T19:34:50.874Z,15.50
2019-05-11T19:39:52.350Z,15.47
2019-05-11T19:44:53.831Z,15.43
2019-05-11T19:49:55.323Z,15.43
2019-05-11T19:54:57.770Z,15.40
2019-05-11T19:59:59.435Z,15.37
2019-05-11T20:05:00.953Z,15.36
2019-05-11T20:10:04.840Z,15.34
2019-05-11T20:15:08.224Z,15.34
2019-05-11T20:20:10.729Z,15.32
2019-05-11T20:25:12.961Z,15.31
2019-05-11T20:30:14.751Z,15.28
2019-05-11T20:35:16.531Z,15.24
2019-05-11T20:40:18.536Z,15.19
2019-05-11T20:45:20.395Z,15.12
2019-05-11T20:50:22.081Z,15.07
2019-05-11T20:55:23.608Z,14.99
2019-05-11T21:00:27.771Z,14.94
2019-05-11T21:05:28.911Z,14.90
2019-05-11T21:10:30.492Z,14.84
2019-05-11T21:15:32.071Z,14.79
2019-05-11T21:20:33.544Z,14.79
2019-05-11T21:25:35.285Z,14.78
2019-05-11T21:30:39.966Z,14.77
2019-05-11T21:35:41.631Z,14.78
2019-05-11T21:40:43.943Z,14.78
2019-05-11T21:45:45.428Z,14.73
2019-05-11T21:50:47.005Z,14.68
2019-05-11T21:55:48.525Z,14.63
2019-05-11T22:00:50.457Z,14.58
2019-05-11T22:05:53.878Z,14.55
2019-05-11T22:10:55.454Z,14.53
2019-05-11T22:15:58.060Z,14.49
2019-05-11T22:20:59.852Z,14.44
2019-05-11T22:26:01.356Z,14.39
2019-05-11T22:31:02.911Z,14.34
2019-05-11T22:36:04.491Z,14.32
2019-05-11T22:41:08.928Z,14.26
2019-05-11T22:46:09.640Z,14.22
2019-05-11T22:51:11.162Z,14.19
2019-05-11T22:56:12.635Z,14.15
2019-05-11T23:01:14.115Z,14.15
2019-05-11T23:06:17.906Z,14.10
2019-05-11T23:11:19.588Z,14.07
2019-05-11T23:16:21.050Z,14.00
2019-05-11T23:21:22.526Z,13.90
2019-05-11T23:26:24.001Z,13.77
2019-05-11T23:31:27.452Z,13.73
2019-05-11T23:36:28.969Z,13.68
2019-05-11T23:41:30.448Z,13.64
2019-05-11T23:46:33.161Z,13.60
2019-05-11T23:51:34.598Z,13.59
2019-05-11T23:56:38.299Z,13.58
